Pagrindinis puslapis
METAR-TAF:

METAR-TAF

Oro uostai :

Phuketas, Tailandas

platuma: 08-07N, ilguma: 098-19E, Aukštis: 6 m

Dabartinis oras

Ataskaita buvo paskelbta 18 minutes, ne 01:00 UTC
Vėjas 5 kt iš Šiaurės/Šiaurės Vakarų, svyruoja nuo Vakarų/Pietvakarių ir Šiaurės/Šiaurės Rytų
Temperatūra 26°C
Drėgmė 74%
Slėgis 1009 hPa
Matomumas 10 km arba daugiau
Mažai debesys ne aukštis 3000 ft

METAR: VTSP 260100Z 33005KT 250V020 9999 FEW030 26/21 Q1009 NOSIG

Laikas: 08:18 (01:18 UTC)

Prognozė

Ataskaita buvo paskelbta 2 valandos ir 18 minutes, ne 23:00 UTC
Prognozė galioja nuo 26 metu 00 UTC su 27 metu 06 UTC
Vėjas 8 kt iš Vakarų/Šiaurės Vakarų
Matomumas 10 km arba daugiau
Mažai debesys ne aukštis 2000 ft

TAF: VTSP 252300Z 2600/2706 30008KT 9999 FEW020

Orai ataskaitas ir orų prognozės (METAR, TAF).

turimą stotys yra geltonos ir raudonos taškus žemėlapyje.

Perkelti pele per norėdami pamatyti stoties vardą.

Tada spustelėkite, norėdami matyti oro stebėjimo ir prognozės.

Norėdami pakeisti žemėlapį: spustelėkite ant žalios mygtukų su juodo kryžiaus žemyn,; žalią mygtuką su brūkšneliu, jei norite nutolinti; arba žalių rodyklių gretimoms žemėlapius.


METAR-TAF: